createdAt,value
2023-03-04T00:03:58.749Z,11.33
2023-03-04T00:09:02.160Z,11.33
2023-03-04T00:14:05.256Z,12.13
2023-03-04T00:19:08.327Z,11.90
2023-03-04T00:24:11.323Z,10.53
2023-03-04T00:29:14.356Z,9.93
2023-03-04T00:34:17.313Z,11.10
2023-03-04T00:39:20.396Z,11.43
2023-03-04T00:44:23.847Z,9.43
2023-03-04T00:49:26.856Z,11.97
2023-03-04T00:54:29.924Z,10.77
2023-03-04T00:59:33.232Z,11.17
2023-03-04T01:04:37.029Z,11.17
2023-03-04T01:09:40.112Z,12.30
2023-03-04T01:14:43.289Z,10.10
2023-03-04T01:19:46.322Z,10.70
2023-03-04T01:24:49.256Z,9.80
2023-03-04T01:29:52.498Z,9.97
2023-03-04T01:34:55.497Z,10.53
2023-03-04T01:39:58.532Z,10.13
2023-03-04T01:45:02.417Z,9.90
2023-03-04T01:50:14.173Z,10.03
2023-03-04T01:55:20.638Z,10.95
2023-03-04T02:00:35.234Z,11.77
2023-03-04T02:05:43.987Z,11.27
2023-03-04T02:10:48.129Z,12.00
2023-03-04T02:15:51.256Z,10.60
2023-03-04T02:21:12.917Z,10.37
2023-03-04T02:26:26.038Z,8.77
2023-03-04T02:31:41.815Z,11.87
2023-03-04T02:36:47.368Z,12.70
2023-03-04T02:41:54.581Z,11.00
2023-03-04T02:46:59.160Z,9.80
2023-03-04T02:52:13.229Z,8.00
2023-03-04T02:57:16.392Z,6.80
2023-03-04T03:02:19.321Z,7.10
2023-03-04T03:07:23.368Z,7.87
2023-03-04T03:12:26.567Z,10.97
2023-03-04T03:17:29.650Z,15.47
2023-03-04T03:22:32.604Z,11.87
2023-03-04T03:27:35.924Z,10.03
2023-03-04T03:32:39.678Z,10.57
2023-03-04T03:37:42.516Z,10.80
2023-03-04T03:42:45.293Z,10.83
2023-03-04T03:47:48.244Z,6.87
2023-03-04T03:52:51.221Z,6.70
2023-03-04T03:57:54.245Z,8.33
2023-03-04T04:03:00.098Z,9.77
2023-03-04T04:08:03.179Z,10.17
2023-03-04T04:13:06.209Z,10.00
2023-03-04T04:18:09.865Z,9.33
2023-03-04T04:23:12.729Z,8.87
2023-03-04T04:28:15.805Z,9.57
2023-03-04T04:33:18.974Z,10.07
2023-03-04T04:38:21.979Z,8.73
2023-03-04T04:43:25.892Z,9.57
2023-03-04T04:48:29.461Z,10.20
2023-03-04T04:53:32.587Z,10.13
2023-03-04T04:58:36.809Z,10.73
2023-03-04T05:03:40.869Z,9.63
2023-03-04T05:08:43.726Z,8.67
2023-03-04T05:13:48.382Z,8.40
2023-03-04T05:18:51.520Z,8.33
2023-03-04T05:23:54.692Z,8.70
2023-03-04T05:28:57.945Z,9.67
2023-03-04T05:34:01.002Z,9.37
2023-03-04T05:39:04.069Z,8.77
2023-03-04T05:44:07.396Z,8.57
2023-03-04T05:49:10.399Z,8.13
2023-03-04T05:54:13.403Z,11.00
2023-03-04T05:59:20.600Z,12.27
2023-03-04T06:04:23.705Z,11.10
2023-03-04T06:09:29.842Z,13.43
2023-03-04T06:14:33.167Z,13.23
2023-03-04T06:19:38.065Z,14.50
2023-03-04T06:24:41.070Z,16.20
2023-03-04T06:29:44.193Z,12.73
2023-03-04T06:34:47.316Z,10.67
2023-03-04T06:39:50.651Z,12.87
2023-03-04T06:44:53.687Z,12.17
2023-03-04T06:49:57.322Z,10.60
2023-03-04T06:55:00.937Z,8.80
2023-03-04T07:00:05.870Z,28.93
2023-03-04T07:05:11.676Z,25.83
2023-03-04T07:10:14.692Z,35.33
2023-03-04T07:15:17.895Z,22.20
2023-03-04T07:20:21.414Z,23.50
2023-03-04T07:25:24.358Z,19.83
2023-03-04T07:30:30.630Z,18.63
2023-03-04T07:35:37.083Z,15.83
2023-03-04T07:40:42.807Z,15.57
2023-03-04T07:45:46.126Z,15.40
2023-03-04T07:50:49.154Z,7.47
2023-03-04T07:55:52.239Z,6.13
2023-03-04T08:00:55.294Z,5.97
2023-03-04T08:05:58.227Z,6.90
2023-03-04T08:11:10.953Z,6.23
2023-03-04T08:16:20.333Z,9.47
2023-03-04T08:21:26.448Z,7.03
2023-03-04T08:26:40.670Z,5.97
2023-03-04T08:31:48.805Z,7.33
2023-03-04T08:36:51.925Z,7.30
2023-03-04T08:41:55.092Z,7.43
2023-03-04T08:46:58.013Z,7.77
2023-03-04T08:52:01.885Z,8.07
2023-03-04T08:57:07.915Z,8.73
2023-03-04T09:02:11.359Z,9.90
2023-03-04T09:07:16.858Z,10.68
2023-03-04T09:12:19.866Z,20.17
2023-03-04T09:17:22.823Z,13.40
2023-03-04T09:22:25.984Z,13.85
2023-03-04T09:27:29.070Z,15.77
2023-03-04T09:32:32.653Z,15.05
2023-03-04T09:37:36.500Z,14.40
2023-03-04T09:42:47.895Z,13.80
2023-03-04T09:47:54.354Z,15.00
2023-03-04T09:53:08.000Z,14.10
2023-03-04T09:59:07.619Z,15.20
2023-03-04T10:04:14.207Z,31.08
2023-03-04T10:09:40.360Z,19.45
2023-03-04T10:14:51.292Z,19.60
2023-03-04T10:25:29.794Z,14.20
2023-03-04T10:31:11.962Z,13.90
2023-03-04T10:36:30.368Z,13.50
2023-03-04T10:41:33.731Z,16.77
2023-03-04T10:46:42.707Z,15.75
2023-03-04T10:52:29.793Z,16.40
2023-03-04T10:57:41.516Z,14.50
2023-03-04T11:02:47.223Z,12.73
2023-03-04T11:08:00.860Z,12.88
2023-03-04T11:13:26.517Z,13.40
2023-03-04T11:18:52.485Z,13.38
2023-03-04T11:24:27.245Z,12.52
2023-03-04T11:29:58.220Z,11.30
2023-03-04T11:35:17.486Z,12.70
2023-03-04T11:40:44.374Z,12.98
2023-03-04T11:46:21.689Z,12.43
2023-03-04T11:51:27.693Z,13.10
2023-03-04T12:13:34.618Z,11.27
2023-03-04T12:54:26.285Z,11.90
2023-03-04T12:59:37.945Z,10.67
2023-03-04T13:05:07.883Z,11.27
2023-03-04T13:10:18.110Z,11.13
2023-03-04T13:15:34.977Z,12.47
2023-03-04T13:20:40.968Z,11.73
2023-03-04T13:25:56.644Z,9.60
2023-03-04T13:31:20.884Z,8.87
2023-03-04T13:36:31.936Z,8.27
2023-03-04T13:46:51.969Z,7.67
2023-03-04T13:51:55.208Z,8.07
2023-03-04T13:57:01.447Z,9.00
2023-03-04T14:02:34.564Z,7.60
2023-03-04T14:07:37.982Z,6.60
2023-03-04T14:12:45.531Z,6.90
2023-03-04T14:17:58.922Z,7.13
2023-03-04T14:23:25.549Z,6.70
2023-03-04T14:28:28.578Z,7.60
2023-03-04T14:33:31.667Z,7.33
2023-03-04T14:38:38.234Z,7.83
2023-03-04T14:43:58.641Z,7.43
2023-03-04T14:49:02.471Z,8.53
2023-03-04T14:54:06.722Z,9.73
2023-03-04T14:59:13.673Z,9.87
2023-03-04T15:04:20.579Z,10.13
2023-03-04T15:09:27.220Z,9.07
2023-03-04T15:14:52.562Z,11.27
2023-03-04T15:20:11.257Z,14.17
2023-03-04T15:25:15.787Z,11.50
2023-03-04T15:30:30.419Z,11.20
2023-03-04T15:35:34.028Z,10.40
2023-03-04T15:40:45.758Z,13.17
2023-03-04T15:45:50.767Z,10.93
2023-03-04T15:51:01.363Z,15.47
2023-03-04T15:56:22.116Z,10.90
2023-03-04T16:01:25.637Z,10.47
2023-03-04T16:06:32.271Z,11.07
2023-03-04T16:11:44.280Z,12.10
2023-03-04T16:16:48.096Z,10.40
2023-03-04T16:21:51.175Z,11.23
2023-03-04T16:26:53.980Z,11.43
2023-03-04T16:31:56.977Z,10.53
2023-03-04T16:37:05.590Z,11.23
2023-03-04T16:42:22.747Z,11.17
2023-03-04T16:47:25.987Z,11.03
2023-03-04T16:52:33.504Z,13.90
2023-03-04T16:57:36.426Z,13.07
2023-03-04T17:02:39.582Z,11.90
2023-03-04T17:07:43.059Z,12.63
2023-03-04T17:12:46.021Z,11.43
2023-03-04T17:17:49.115Z,13.07
2023-03-04T17:22:53.651Z,13.57
2023-03-04T17:27:56.592Z,13.60
2023-03-04T17:32:59.725Z,13.27
2023-03-04T17:38:02.668Z,12.23
2023-03-04T17:43:11.377Z,14.80
2023-03-04T17:48:17.482Z,13.20
2023-03-04T17:53:21.173Z,12.53
2023-03-04T17:58:24.717Z,16.00
2023-03-04T18:03:27.655Z,14.20
2023-03-04T18:08:30.909Z,15.00
2023-03-04T18:13:34.005Z,15.13
2023-03-04T18:18:37.010Z,15.37
2023-03-04T18:23:40.198Z,14.70
2023-03-04T18:28:42.984Z,12.27
2023-03-04T18:33:47.121Z,10.80
2023-03-04T18:38:50.222Z,8.80
2023-03-04T18:43:53.330Z,8.43
2023-03-04T18:49:03.171Z,7.13
2023-03-04T18:54:07.002Z,6.10
2023-03-04T18:59:46.380Z,6.63
2023-03-04T19:04:50.711Z,6.30
2023-03-04T19:09:54.862Z,6.47
2023-03-04T19:14:58.895Z,6.17
2023-03-04T19:20:07.930Z,6.07
2023-03-04T19:25:12.078Z,6.37
2023-03-04T19:30:15.009Z,5.43
2023-03-04T19:35:18.363Z,7.90
2023-03-04T19:40:21.517Z,5.33
2023-03-04T19:45:25.515Z,7.80
2023-03-04T19:50:28.312Z,5.97
2023-03-04T19:55:36.273Z,5.27
2023-03-04T20:00:39.288Z,9.07
2023-03-04T20:05:42.306Z,6.53
2023-03-04T20:10:45.285Z,6.80
2023-03-04T20:15:48.439Z,5.20
2023-03-04T20:20:51.956Z,6.43
2023-03-04T20:25:56.143Z,10.03
2023-03-04T20:31:26.375Z,5.70
2023-03-04T20:36:31.135Z,27.37
2023-03-04T20:41:34.854Z,11.77
2023-03-04T20:46:43.194Z,8.53
2023-03-04T20:51:46.280Z,6.73
2023-03-04T20:56:49.770Z,7.03
2023-03-04T21:01:52.869Z,5.97
2023-03-04T21:06:55.834Z,5.67
2023-03-04T21:12:00.925Z,6.80
2023-03-04T21:17:05.729Z,10.17
2023-03-04T21:22:15.554Z,11.63
2023-03-04T21:27:19.758Z,7.57
2023-03-04T21:32:27.106Z,7.47
2023-03-04T21:37:30.218Z,7.77
2023-03-04T21:42:33.277Z,7.53
2023-03-04T21:47:36.486Z,7.77
2023-03-04T21:52:39.486Z,6.93
2023-03-04T21:57:42.562Z,8.77
2023-03-04T22:02:45.402Z,6.77
2023-03-04T22:07:48.337Z,6.60
2023-03-04T22:12:51.369Z,7.47
2023-03-04T22:17:54.366Z,8.10
2023-03-04T22:22:57.383Z,7.50
2023-03-04T22:28:00.627Z,7.50
2023-03-04T22:33:04.384Z,7.57
2023-03-04T22:38:07.526Z,7.30
2023-03-04T22:43:10.923Z,7.37
2023-03-04T22:48:14.600Z,8.17
2023-03-04T22:53:17.633Z,7.10
2023-03-04T22:58:20.411Z,7.37
2023-03-04T23:03:23.334Z,7.17
2023-03-04T23:08:26.268Z,6.40
2023-03-04T23:13:29.746Z,6.27
2023-03-04T23:18:32.866Z,6.93
2023-03-04T23:23:36.652Z,6.13
2023-03-04T23:28:39.851Z,6.77
2023-03-04T23:33:47.870Z,5.70
2023-03-04T23:38:51.033Z,6.37
2023-03-04T23:43:55.931Z,5.50
2023-03-04T23:48:58.988Z,6.17
2023-03-04T23:54:02.028Z,5.57
2023-03-04T23:59:07.887Z,6.90
